Terminal Aerodrome Forecast
Issued by NWS

Current Version | Previous Version | Text Only | Print | Product List | Glossary On
Versions: 1 2 3 4 5 6 7 8 9 10 11 12 13 14 15 16 17 18 19
703
FTUS43 KIND 191120
TAFHUF
TAF
KHUF 191120Z 1912/2012 11004KT P6SM OVC090
     FM191800 12007KT P6SM VCSH OVC035
     FM192100 11007KT 4SM -SHRA OVC015
     FM200000 10008KT 3SM SHRA OVC010
     FM200300 11006KT 1 1/2SM SHRA OVC003
     FM200600 13004KT 1 1/2SM -SHRA OVC003
     FM201000 22005KT P6SM OVC003=

USA.gov is the U.S. government's official web portal to all federal, state and local government web resources and services.